首页
METAR-TAF:

METAR-TAF

机场 :

凯夫拉维克国际机场

凯夫拉维克, 冰岛

纬度: 63-58N, 经度: 022-36W, 海拔: 52米

当前天气观测

该预报发布于36分钟前的03:00 UTC
风速13节,风向东南
温度 9°C
湿度 81%
气压 1010 hPa
能见度10公里或以上
少量云层高于3500英尺
多云层高于6700英尺
多云层高于9500英尺

METAR: BIKF 140300Z 13013KT 9999 FEW035 BKN067 BKN095 09/06 Q1010

时间: 03:36 (03:36 UTC)

预报

该预报发布于1小时和41分钟前的01:55 UTC
预报有效从14日的 03点(UTC)到 15日的 03点(UTC)
风速15节,风向东转东南
能见度10公里或以上
散云层高于4000英尺
成为
从 14日的 10点(UTC)到 14日的 12点(UTC)
风速5节,风向东南
成为
从 14日的 18点(UTC)到 14日的 20点(UTC)
风速10节,风向西转西北

TAF: BIKF 140155Z 1403/1503 12015KT 9999 SCT040 TX12/1415Z TN08/1404Z BECMG 1410/1412 13005KT BECMG 1418/1420 30010KT

超过4000个机场的气象观测和天气预报(METAR&TAF报告)。

可查询的气象台以黄色和红色小点在地图上表示。

将鼠标移到小点上方,可查看气象台名称。

然后点击查看天气观测和预报。

如需切换地图:点击带黑十字的绿色按钮放大地图;点击带横线的绿色按钮缩小地图;或者点击绿色箭头查看邻近地区的地图。


METAR-TAF: